createdAt,value
2023-02-23T00:02:06.596Z,60.40
2023-02-23T00:04:35.105Z,60.20
2023-02-23T00:07:02.418Z,60.14
2023-02-23T00:09:35.321Z,60.35
2023-02-23T00:12:07.878Z,60.77
2023-02-23T00:14:38.055Z,60.55
2023-02-23T00:17:10.829Z,61.16
2023-02-23T00:19:37.927Z,61.07
2023-02-23T00:22:06.402Z,61.31
2023-02-23T00:24:33.444Z,61.70
2023-02-23T00:27:06.123Z,61.41
2023-02-23T00:29:39.486Z,62.23
2023-02-23T00:32:07.029Z,62.29
2023-02-23T00:34:36.586Z,62.56
2023-02-23T00:37:04.553Z,61.85
2023-02-23T00:39:31.541Z,61.48
2023-02-23T00:42:02.802Z,61.11
2023-02-23T00:44:30.659Z,61.11
2023-02-23T00:46:57.798Z,61.38
2023-02-23T00:49:24.973Z,61.23
2023-02-23T00:51:53.101Z,61.35
2023-02-23T00:54:21.726Z,61.64
2023-02-23T00:56:49.782Z,61.10
2023-02-23T00:59:17.589Z,61.49
2023-02-23T01:01:45.274Z,63.33
2023-02-23T01:04:13.574Z,63.02
2023-02-23T01:06:42.456Z,63.24
2023-02-23T01:09:14.563Z,63.28
2023-02-23T01:11:42.219Z,62.62
2023-02-23T01:14:10.739Z,62.70
2023-02-23T01:16:38.962Z,63.30
2023-02-23T01:19:06.982Z,62.71
2023-02-23T01:21:38.000Z,62.15
2023-02-23T01:24:06.161Z,62.22
2023-02-23T01:26:39.245Z,62.54
2023-02-23T01:29:15.666Z,62.56
2023-02-23T01:31:46.932Z,62.86
2023-02-23T01:34:19.683Z,62.81
2023-02-23T01:36:46.756Z,63.02
2023-02-23T01:39:17.397Z,62.40
2023-02-23T01:41:45.364Z,62.16
2023-02-23T01:44:15.107Z,62.33
2023-02-23T01:46:45.446Z,63.41
2023-02-23T01:49:20.935Z,63.19
2023-02-23T01:51:57.869Z,62.76
2023-02-23T01:54:36.351Z,62.76
2023-02-23T01:57:04.963Z,62.73
2023-02-23T01:59:46.674Z,62.81
2023-02-23T02:02:16.819Z,63.36
2023-02-23T02:04:44.837Z,63.33
2023-02-23T02:07:26.566Z,62.48
2023-02-23T02:10:12.472Z,62.62
2023-02-23T02:12:53.535Z,62.24
2023-02-23T02:15:25.890Z,62.47
2023-02-23T02:18:09.372Z,62.30
2023-02-23T02:21:12.271Z,61.93
2023-02-23T02:24:18.994Z,62.49
2023-02-23T02:27:05.221Z,62.81
2023-02-23T02:30:20.051Z,62.12
2023-02-23T02:33:46.584Z,62.42
2023-02-23T02:36:42.832Z,62.39
2023-02-23T02:39:36.361Z,62.40
2023-02-23T02:42:30.605Z,63.30
2023-02-23T02:45:23.980Z,63.68
2023-02-23T02:48:31.096Z,63.48
2023-02-23T02:51:18.425Z,63.65
2023-02-23T02:54:06.739Z,63.40
2023-02-23T02:56:40.371Z,63.33
2023-02-23T02:59:34.125Z,63.76
2023-02-23T03:02:20.833Z,63.40
2023-02-23T03:05:06.204Z,63.50
2023-02-23T03:08:55.301Z,63.67
2023-02-23T03:11:55.202Z,64.20
2023-02-23T03:15:14.029Z,63.74
2023-02-23T03:18:07.400Z,63.94
2023-02-23T03:20:52.826Z,63.67
2023-02-23T03:24:40.115Z,63.59
2023-02-23T03:27:40.576Z,63.49
2023-02-23T03:31:22.463Z,63.40
2023-02-23T03:34:52.129Z,63.71
2023-02-23T03:37:56.949Z,63.69
2023-02-23T03:40:52.937Z,63.74
2023-02-23T03:43:45.643Z,63.83
2023-02-23T03:46:34.417Z,63.89
2023-02-23T03:49:27.034Z,63.82
2023-02-23T03:52:19.904Z,64.17
2023-02-23T03:55:17.370Z,64.21
2023-02-23T03:58:08.449Z,64.19
2023-02-23T04:01:02.779Z,64.06
2023-02-23T04:03:52.973Z,63.94
2023-02-23T04:06:43.912Z,64.14
2023-02-23T04:09:30.453Z,64.07
2023-02-23T04:12:22.725Z,64.17
2023-02-23T04:15:02.275Z,64.00
2023-02-23T04:17:31.054Z,63.91
2023-02-23T04:19:58.146Z,63.71
2023-02-23T04:22:25.833Z,64.21
2023-02-23T04:24:52.877Z,63.56
2023-02-23T04:27:20.583Z,63.52
2023-02-23T04:29:47.717Z,63.35
2023-02-23T04:32:18.612Z,63.24
2023-02-23T04:34:46.106Z,63.54
2023-02-23T04:37:14.035Z,63.22
2023-02-23T04:39:42.636Z,62.88
2023-02-23T04:42:10.172Z,63.05
2023-02-23T04:44:37.143Z,63.20
2023-02-23T04:47:04.152Z,62.58
2023-02-23T04:49:31.263Z,62.88
2023-02-23T04:51:58.374Z,63.42
2023-02-23T04:54:25.847Z,63.00
2023-02-23T04:56:52.865Z,62.59
2023-02-23T04:59:20.055Z,62.69
2023-02-23T05:01:47.007Z,62.52
2023-02-23T05:04:14.070Z,62.58
2023-02-23T05:06:42.877Z,62.78
2023-02-23T05:09:10.556Z,62.51
2023-02-23T05:11:38.103Z,62.69
2023-02-23T05:14:05.156Z,62.71
2023-02-23T05:16:32.365Z,62.77
2023-02-23T05:18:59.310Z,62.68
2023-02-23T05:21:26.199Z,62.47
2023-02-23T05:23:53.150Z,62.64
2023-02-23T05:26:20.539Z,62.49
2023-02-23T05:28:47.449Z,62.56
2023-02-23T05:31:14.790Z,62.71
2023-02-23T05:33:45.730Z,62.61
2023-02-23T05:36:19.552Z,62.21
2023-02-23T05:38:47.237Z,62.44
2023-02-23T05:41:18.879Z,62.46
2023-02-23T05:43:46.328Z,62.52
2023-02-23T05:46:19.383Z,62.68
2023-02-23T05:48:46.904Z,62.46
2023-02-23T05:51:15.823Z,62.63
2023-02-23T05:53:45.103Z,62.86
2023-02-23T05:56:20.317Z,62.31
2023-02-23T05:58:56.250Z,62.46
2023-02-23T06:01:24.049Z,62.64
2023-02-23T06:03:51.506Z,62.55
2023-02-23T06:06:19.131Z,62.63
2023-02-23T06:08:46.493Z,62.43
2023-02-23T06:11:14.013Z,62.30
2023-02-23T06:13:41.166Z,62.36
2023-02-23T06:16:08.770Z,62.31
2023-02-23T06:18:36.329Z,62.24
2023-02-23T06:21:04.435Z,62.36
2023-02-23T06:23:32.629Z,62.10
2023-02-23T06:26:00.009Z,62.39
2023-02-23T06:28:28.470Z,62.20
2023-02-23T06:30:56.906Z,62.15
2023-02-23T06:33:24.153Z,62.31
2023-02-23T06:35:52.640Z,62.20
2023-02-23T06:38:20.451Z,62.04
2023-02-23T06:40:47.538Z,61.94
2023-02-23T06:43:14.522Z,62.14
2023-02-23T06:45:42.003Z,62.07
2023-02-23T06:48:09.033Z,61.96
2023-02-23T06:50:36.079Z,62.06
2023-02-23T06:53:03.174Z,61.87
2023-02-23T06:55:30.161Z,61.92
2023-02-23T06:57:57.210Z,62.22
2023-02-23T07:00:24.462Z,61.99
2023-02-23T07:02:51.436Z,61.98
2023-02-23T07:05:18.542Z,62.10
2023-02-23T07:07:45.841Z,61.92
2023-02-23T07:10:13.166Z,62.10
2023-02-23T07:12:40.103Z,62.00
2023-02-23T07:15:08.024Z,62.04
2023-02-23T07:17:35.067Z,62.27
2023-02-23T07:20:02.541Z,61.97
2023-02-23T07:22:30.390Z,62.27
2023-02-23T07:24:57.996Z,61.83
2023-02-23T07:27:25.595Z,62.04
2023-02-23T07:29:53.000Z,61.82
2023-02-23T07:32:20.312Z,61.91
2023-02-23T07:34:47.737Z,61.95
2023-02-23T07:37:15.453Z,61.82
2023-02-23T07:39:42.523Z,61.86
2023-02-23T07:42:09.556Z,61.84
2023-02-23T07:44:38.142Z,61.94
2023-02-23T07:47:06.466Z,62.06
2023-02-23T07:49:34.534Z,62.12
2023-02-23T07:52:01.673Z,62.04
2023-02-23T07:54:28.850Z,62.14
2023-02-23T07:56:55.863Z,61.98
2023-02-23T07:59:22.971Z,61.72
2023-02-23T08:01:51.666Z,61.72
2023-02-23T08:04:19.132Z,61.50
2023-02-23T08:06:46.082Z,61.53
2023-02-23T08:09:13.076Z,61.57
2023-02-23T08:11:40.459Z,61.42
2023-02-23T08:14:07.528Z,61.44
2023-02-23T08:16:34.650Z,61.64
2023-02-23T08:19:02.682Z,61.64
2023-02-23T08:21:30.665Z,61.68
2023-02-23T08:23:58.841Z,61.52
2023-02-23T08:26:26.127Z,61.41
2023-02-23T08:28:54.561Z,61.30
2023-02-23T08:31:24.168Z,61.09
2023-02-23T08:33:52.494Z,61.02
2023-02-23T08:36:20.816Z,61.21
2023-02-23T08:38:48.499Z,61.31
2023-02-23T08:41:16.108Z,61.32
2023-02-23T08:43:44.035Z,61.04
2023-02-23T08:46:11.562Z,61.19
2023-02-23T08:48:40.339Z,61.06
2023-02-23T08:51:08.927Z,61.24
2023-02-23T08:53:36.276Z,60.94
2023-02-23T08:56:06.661Z,60.89
2023-02-23T08:58:35.545Z,60.59
2023-02-23T09:01:03.308Z,60.64
2023-02-23T09:03:31.504Z,60.46
2023-02-23T09:06:07.832Z,60.47
2023-02-23T09:08:35.076Z,60.31
2023-02-23T09:11:02.134Z,59.75
2023-02-23T09:13:29.055Z,59.65
2023-02-23T09:15:56.052Z,59.81
2023-02-23T09:18:24.088Z,59.91
2023-02-23T09:20:51.414Z,59.66
2023-02-23T09:23:18.624Z,59.86
2023-02-23T09:25:46.166Z,60.02
2023-02-23T09:28:18.667Z,59.83
2023-02-23T09:30:47.207Z,59.94
2023-02-23T09:33:14.397Z,59.60
2023-02-23T09:35:41.868Z,60.04
2023-02-23T09:38:09.711Z,60.09
2023-02-23T09:40:54.573Z,59.70
2023-02-23T09:43:42.463Z,59.67
2023-02-23T09:46:49.969Z,59.35
2023-02-23T09:49:22.365Z,59.12
2023-02-23T09:51:57.599Z,58.52
2023-02-23T09:54:29.650Z,58.46
2023-02-23T09:56:58.352Z,58.27
2023-02-23T09:59:26.212Z,58.42
2023-02-23T10:02:25.687Z,57.92
2023-02-23T10:05:04.890Z,58.04
2023-02-23T10:07:55.635Z,57.94
2023-02-23T10:10:44.796Z,57.92
2023-02-23T10:13:45.853Z,57.62
2023-02-23T10:16:22.905Z,57.72
2023-02-23T10:19:33.180Z,57.57
2023-02-23T10:22:06.451Z,57.53
2023-02-23T10:24:43.088Z,57.65
2023-02-23T10:27:19.484Z,56.47
2023-02-23T10:29:54.941Z,56.50
2023-02-23T10:32:41.905Z,56.28
2023-02-23T10:35:19.597Z,56.18
2023-02-23T10:37:47.847Z,55.73
2023-02-23T10:40:25.270Z,55.72
2023-02-23T10:42:53.030Z,55.75
2023-02-23T10:45:25.846Z,55.43
2023-02-23T10:48:01.925Z,54.92
2023-02-23T10:50:30.760Z,55.22
2023-02-23T10:53:12.125Z,55.46
2023-02-23T10:55:39.336Z,54.70
2023-02-23T10:58:16.681Z,55.17
2023-02-23T11:01:02.698Z,55.04
2023-02-23T11:03:33.700Z,54.33
2023-02-23T11:06:01.067Z,54.07
2023-02-23T11:08:33.587Z,53.64
2023-02-23T11:11:15.720Z,53.73
2023-02-23T11:13:50.395Z,52.66
2023-02-23T11:16:23.774Z,53.20
2023-02-23T11:18:56.571Z,52.86
2023-02-23T11:21:38.353Z,52.61
2023-02-23T11:24:32.005Z,53.45
2023-02-23T11:27:03.825Z,52.24
2023-02-23T11:29:37.518Z,52.15
2023-02-23T11:32:30.502Z,51.85
2023-02-23T11:35:27.655Z,51.83
2023-02-23T11:37:55.656Z,52.29
2023-02-23T11:40:34.860Z,52.34
2023-02-23T11:43:17.386Z,51.44
2023-02-23T11:45:49.697Z,51.47
2023-02-23T11:48:26.870Z,51.68
2023-02-23T11:50:54.995Z,51.69
2023-02-23T11:53:32.132Z,51.69
2023-02-23T11:56:07.870Z,51.35
2023-02-23T11:58:39.873Z,51.50
2023-02-23T12:01:14.346Z,51.49
2023-02-23T12:03:50.388Z,50.81
2023-02-23T12:06:37.383Z,51.36
2023-02-23T12:09:23.868Z,51.04
2023-02-23T12:12:07.399Z,51.20
2023-02-23T12:14:52.270Z,51.08
2023-02-23T12:17:34.329Z,51.15
2023-02-23T12:20:16.291Z,51.19
2023-02-23T12:22:54.766Z,50.94
2023-02-23T12:25:51.111Z,51.52
2023-02-23T12:29:06.170Z,51.02
2023-02-23T12:31:53.196Z,51.22
2023-02-23T12:34:44.469Z,51.09
2023-02-23T12:37:20.436Z,51.05
2023-02-23T12:39:57.538Z,51.21
2023-02-23T12:42:58.333Z,51.35
2023-02-23T12:45:40.788Z,50.44
2023-02-23T12:48:35.876Z,50.69
2023-02-23T12:51:34.811Z,50.32
2023-02-23T12:54:02.985Z,49.91
2023-02-23T12:56:59.967Z,49.70
2023-02-23T12:59:46.289Z,49.01
2023-02-23T13:02:43.276Z,49.00
2023-02-23T13:05:19.974Z,48.16
2023-02-23T13:08:25.680Z,48.34
2023-02-23T13:11:25.651Z,48.07
2023-02-23T13:13:59.468Z,48.56
2023-02-23T13:16:53.466Z,48.51
2023-02-23T13:19:31.140Z,48.79
2023-02-23T13:22:24.356Z,48.65
2023-02-23T13:24:55.797Z,48.64
2023-02-23T13:27:35.828Z,48.60
2023-02-23T13:30:04.476Z,47.76
2023-02-23T13:32:34.170Z,46.79
2023-02-23T13:35:20.480Z,47.04
2023-02-23T13:38:19.617Z,46.93
2023-02-23T13:41:03.253Z,46.62
2023-02-23T13:43:47.454Z,45.52
2023-02-23T13:46:37.205Z,45.81
2023-02-23T13:49:42.455Z,44.79
2023-02-23T13:52:31.383Z,43.67
2023-02-23T13:55:03.198Z,42.26
2023-02-23T13:57:32.171Z,41.24
2023-02-23T14:00:00.706Z,41.89
2023-02-23T14:02:31.048Z,41.76
2023-02-23T14:05:06.679Z,40.73
2023-02-23T14:07:42.481Z,40.73
2023-02-23T14:13:08.408Z,41.37
2023-02-23T14:15:35.228Z,41.56
2023-02-23T14:18:32.560Z,41.70
2023-02-23T14:21:25.625Z,42.32
2023-02-23T14:24:02.991Z,43.11
2023-02-23T14:26:31.152Z,42.65
2023-02-23T14:29:25.592Z,43.38
2023-02-23T14:32:10.487Z,43.45
2023-02-23T14:35:01.904Z,43.43
2023-02-23T14:37:41.470Z,44.17
2023-02-23T14:40:18.428Z,44.06
2023-02-23T14:42:57.485Z,44.24
2023-02-23T14:45:33.288Z,45.16
2023-02-23T14:48:07.426Z,44.48
2023-02-23T14:50:36.646Z,45.16
2023-02-23T14:53:06.941Z,44.75
2023-02-23T14:55:38.095Z,44.72
2023-02-23T14:58:26.694Z,45.27
2023-02-23T15:00:54.092Z,44.80
2023-02-23T15:03:22.534Z,45.09
2023-02-23T15:06:00.000Z,45.26
2023-02-23T15:08:30.091Z,45.14
2023-02-23T15:11:14.408Z,45.02
2023-02-23T15:13:48.985Z,45.02
2023-02-23T15:16:30.064Z,45.62
2023-02-23T15:18:59.655Z,45.63
2023-02-23T15:21:26.756Z,45.69
2023-02-23T15:24:24.432Z,46.13
2023-02-23T15:26:51.888Z,46.00
2023-02-23T15:29:23.547Z,46.67
2023-02-23T15:31:53.978Z,47.20
2023-02-23T15:34:30.473Z,47.14
2023-02-23T15:37:11.954Z,47.51
2023-02-23T15:39:54.674Z,47.47
2023-02-23T15:42:35.737Z,47.79
2023-02-23T15:45:14.653Z,48.01
2023-02-23T15:47:43.352Z,48.17
2023-02-23T15:50:34.876Z,48.08
2023-02-23T15:53:19.647Z,48.59
2023-02-23T15:55:48.461Z,48.77
2023-02-23T15:58:27.828Z,48.74
2023-02-23T16:01:09.598Z,49.48
2023-02-23T16:03:44.307Z,49.19
2023-02-23T16:06:34.701Z,49.65
2023-02-23T16:09:23.835Z,49.33
2023-02-23T16:11:56.755Z,49.66
2023-02-23T16:14:24.837Z,49.75
2023-02-23T16:17:10.061Z,49.75
2023-02-23T16:19:41.332Z,49.68
2023-02-23T16:22:20.779Z,49.83
2023-02-23T16:24:59.641Z,50.26
2023-02-23T16:27:28.359Z,50.06
2023-02-23T16:30:15.111Z,49.96
2023-02-23T16:32:44.279Z,50.64
2023-02-23T16:35:20.290Z,51.04
2023-02-23T16:38:04.842Z,51.67
2023-02-23T16:40:32.628Z,51.72
2023-02-23T16:42:59.837Z,51.52
2023-02-23T16:45:27.326Z,52.12
2023-02-23T16:47:56.176Z,52.27
2023-02-23T16:50:25.134Z,52.76
2023-02-23T16:52:53.737Z,53.66
2023-02-23T16:55:26.356Z,53.95
2023-02-23T16:58:02.496Z,54.92
2023-02-23T17:00:33.357Z,54.53
2023-02-23T17:03:00.988Z,54.61
2023-02-23T17:05:29.186Z,55.12
2023-02-23T17:07:58.539Z,56.56
2023-02-23T17:10:30.795Z,56.04
2023-02-23T17:13:05.112Z,56.06
2023-02-23T17:15:40.786Z,56.56
2023-02-23T17:18:08.164Z,56.99
2023-02-23T17:20:35.100Z,56.34
2023-02-23T17:23:03.024Z,56.12
2023-02-23T17:25:30.274Z,56.78
2023-02-23T17:27:58.578Z,56.66
2023-02-23T17:30:26.841Z,57.64
2023-02-23T17:32:57.006Z,56.99
2023-02-23T17:35:25.601Z,57.53
2023-02-23T17:37:53.129Z,56.91
2023-02-23T17:40:26.355Z,56.75
2023-02-23T17:42:54.490Z,57.14
2023-02-23T17:45:22.658Z,57.66
2023-02-23T17:47:49.867Z,57.51
2023-02-23T17:50:19.950Z,58.13
2023-02-23T17:52:48.926Z,57.68
2023-02-23T17:55:16.415Z,57.63
2023-02-23T17:57:44.197Z,57.39
2023-02-23T18:00:13.785Z,57.25
2023-02-23T18:02:43.085Z,57.08
2023-02-23T18:05:12.494Z,58.60
2023-02-23T18:07:39.613Z,59.10
2023-02-23T18:10:07.331Z,58.37
2023-02-23T18:12:34.769Z,58.11
2023-02-23T18:15:01.761Z,57.62
2023-02-23T18:17:28.872Z,57.73
2023-02-23T18:19:55.832Z,57.68
2023-02-23T18:22:22.972Z,57.81
2023-02-23T18:24:50.003Z,58.00
2023-02-23T18:27:16.920Z,57.70
2023-02-23T18:29:43.913Z,57.41
2023-02-23T18:32:11.780Z,57.51
2023-02-23T18:34:38.814Z,57.23
2023-02-23T18:37:09.832Z,57.18
2023-02-23T18:39:37.344Z,57.03
2023-02-23T18:42:05.099Z,57.19
2023-02-23T18:44:34.785Z,57.13
2023-02-23T18:47:02.628Z,56.87
2023-02-23T18:49:29.825Z,57.36
2023-02-23T18:51:57.109Z,57.87
2023-02-23T18:54:25.928Z,57.85
2023-02-23T18:56:54.407Z,57.82
2023-02-23T18:59:21.516Z,57.74
2023-02-23T19:01:49.124Z,57.62
2023-02-23T19:04:16.389Z,57.32
2023-02-23T19:06:45.873Z,58.03
2023-02-23T19:09:14.437Z,57.90
2023-02-23T19:11:43.408Z,57.62
2023-02-23T19:14:22.016Z,57.63
2023-02-23T19:16:50.952Z,57.59
2023-02-23T19:19:18.646Z,57.58
2023-02-23T19:21:45.822Z,57.72
2023-02-23T19:24:13.162Z,57.58
2023-02-23T19:26:40.837Z,57.77
2023-02-23T19:29:08.326Z,57.66
2023-02-23T19:31:36.801Z,57.52
2023-02-23T19:34:04.861Z,57.69
2023-02-23T19:36:33.788Z,57.34
2023-02-23T19:39:11.041Z,58.17
2023-02-23T19:41:40.669Z,58.75
2023-02-23T19:44:08.632Z,59.01
2023-02-23T19:46:36.939Z,59.12
2023-02-23T19:49:04.650Z,58.64
2023-02-23T19:51:31.968Z,58.64
2023-02-23T19:53:59.553Z,59.22
2023-02-23T19:56:28.009Z,59.00
2023-02-23T19:58:56.642Z,58.73
2023-02-23T20:01:27.526Z,58.92
2023-02-23T20:03:56.974Z,59.63
2023-02-23T20:06:27.436Z,59.82
2023-02-23T20:08:55.120Z,59.54
2023-02-23T20:11:23.412Z,59.04
2023-02-23T20:13:51.327Z,59.34
2023-02-23T20:16:18.801Z,59.27
2023-02-23T20:18:45.984Z,59.17
2023-02-23T20:21:17.266Z,59.14
2023-02-23T20:23:46.691Z,59.69
2023-02-23T20:26:22.965Z,59.39
2023-02-23T20:28:51.115Z,59.44
2023-02-23T20:31:31.593Z,59.50
2023-02-23T20:34:05.881Z,59.42
2023-02-23T20:36:32.772Z,59.59
2023-02-23T20:38:59.657Z,60.17
2023-02-23T20:41:27.911Z,60.40
2023-02-23T20:43:56.044Z,60.16
2023-02-23T20:46:23.113Z,60.02
2023-02-23T20:48:50.064Z,60.06
2023-02-23T20:51:19.168Z,60.62
2023-02-23T20:53:48.304Z,60.05
2023-02-23T20:56:18.539Z,60.67
2023-02-23T20:58:46.372Z,60.90
2023-02-23T21:01:22.709Z,60.50
2023-02-23T21:03:51.782Z,60.40
2023-02-23T21:06:20.681Z,60.88
2023-02-23T21:08:48.981Z,60.98
2023-02-23T21:11:20.016Z,60.84
2023-02-23T21:13:47.576Z,61.49
2023-02-23T21:16:17.809Z,61.25
2023-02-23T21:18:45.460Z,60.93
2023-02-23T21:21:13.920Z,61.04
2023-02-23T21:23:43.368Z,61.19
2023-02-23T21:26:14.238Z,61.02
2023-02-23T21:28:46.061Z,61.40
2023-02-23T21:31:15.285Z,62.00
2023-02-23T21:33:44.007Z,62.24
2023-02-23T21:36:12.602Z,62.18
2023-02-23T21:38:44.538Z,61.81
2023-02-23T21:41:13.532Z,61.62
2023-02-23T21:43:42.795Z,61.36
2023-02-23T21:46:16.157Z,60.95
2023-02-23T21:48:44.060Z,61.91
2023-02-23T21:51:15.777Z,61.71
2023-02-23T21:53:45.616Z,61.47
2023-02-23T21:56:16.320Z,61.95
2023-02-23T21:58:52.409Z,61.55
2023-02-23T22:01:31.237Z,61.10
2023-02-23T22:03:58.424Z,61.08
2023-02-23T22:06:28.667Z,60.93
2023-02-23T22:08:57.045Z,60.70
2023-02-23T22:11:27.340Z,60.54
2023-02-23T22:13:59.311Z,60.71
2023-02-23T22:16:45.358Z,60.33
2023-02-23T22:19:12.930Z,60.63
2023-02-23T22:21:44.324Z,60.72
2023-02-23T22:24:14.190Z,60.64
2023-02-23T22:26:50.379Z,60.84
2023-02-23T22:29:17.596Z,60.74
2023-02-23T22:31:44.680Z,60.38
2023-02-23T22:34:11.820Z,60.31
2023-02-23T22:36:38.881Z,60.89
2023-02-23T22:39:07.482Z,60.73
2023-02-23T22:41:42.111Z,60.60
2023-02-23T22:44:18.997Z,60.47
2023-02-23T22:46:48.235Z,60.53
2023-02-23T22:49:16.676Z,60.70
2023-02-23T22:51:43.983Z,60.75
2023-02-23T22:54:11.618Z,60.63
2023-02-23T22:56:39.535Z,60.70
2023-02-23T22:59:08.504Z,60.64
2023-02-23T23:01:39.302Z,60.54
2023-02-23T23:04:10.341Z,60.70
2023-02-23T23:06:40.085Z,61.17
2023-02-23T23:09:09.200Z,61.38
2023-02-23T23:11:41.816Z,62.47
2023-02-23T23:14:10.580Z,62.62
2023-02-23T23:16:47.595Z,63.17
2023-02-23T23:19:23.820Z,62.76
2023-02-23T23:21:56.981Z,63.21
2023-02-23T23:24:25.473Z,63.56
2023-02-23T23:27:00.149Z,63.01
2023-02-23T23:29:32.457Z,62.57
2023-02-23T23:32:02.298Z,62.63
2023-02-23T23:34:33.352Z,62.77
2023-02-23T23:37:01.203Z,62.74
2023-02-23T23:39:28.159Z,62.46
2023-02-23T23:41:55.551Z,62.25
2023-02-23T23:44:28.865Z,62.08
2023-02-23T23:46:56.856Z,62.23
2023-02-23T23:49:25.467Z,61.82
2023-02-23T23:51:56.137Z,62.58
2023-02-23T23:54:32.188Z,63.56
2023-02-23T23:57:03.847Z,64.86
2023-02-23T23:59:31.966Z,64.82
